createdAt,value
2018-06-04T00:02:26.211Z,17.75
2018-06-04T00:04:55.643Z,18.06
2018-06-04T00:07:23.958Z,17.92
2018-06-04T00:09:52.282Z,17.96
2018-06-04T00:12:20.566Z,17.96
2018-06-04T00:14:48.850Z,17.84
2018-06-04T00:17:17.162Z,17.73
2018-06-04T00:19:46.413Z,17.71
2018-06-04T00:22:14.726Z,17.72
2018-06-04T00:24:42.977Z,17.65
2018-06-04T00:27:11.302Z,17.68
2018-06-04T00:29:39.559Z,17.82
2018-06-04T00:32:08.846Z,17.83
2018-06-04T00:34:37.113Z,17.81
2018-06-04T00:37:05.502Z,17.96
2018-06-04T00:39:33.949Z,17.94
2018-06-04T00:42:02.204Z,17.97
2018-06-04T00:44:30.489Z,17.71
2018-06-04T00:46:58.788Z,17.65
2018-06-04T00:49:27.065Z,17.67
2018-06-04T00:51:55.311Z,17.56
2018-06-04T00:54:23.595Z,17.39
2018-06-04T00:56:52.339Z,17.49
2018-06-04T00:59:20.609Z,17.42
2018-06-04T01:01:48.875Z,17.25
2018-06-04T01:04:17.141Z,17.35
2018-06-04T01:06:45.398Z,17.13
2018-06-04T01:09:13.703Z,17.14
2018-06-04T01:11:41.970Z,17.03
2018-06-04T01:14:10.249Z,16.99
2018-06-04T01:16:38.510Z,17.10
2018-06-04T01:19:07.030Z,17.01
2018-06-04T01:21:35.281Z,17.20
2018-06-04T01:24:03.522Z,17.14
2018-06-04T01:26:31.808Z,17.22
2018-06-04T01:29:00.098Z,17.00
2018-06-04T01:31:28.373Z,16.96
2018-06-04T01:33:56.629Z,17.00
2018-06-04T01:36:24.909Z,17.26
2018-06-04T01:38:53.168Z,17.48
2018-06-04T01:41:21.448Z,17.15
2018-06-04T01:43:49.696Z,17.05
2018-06-04T01:46:17.965Z,16.84
2018-06-04T01:48:46.210Z,16.82
2018-06-04T01:51:14.504Z,16.72
2018-06-04T01:53:42.858Z,16.90
2018-06-04T01:56:11.158Z,16.68
2018-06-04T01:58:39.410Z,16.62
2018-06-04T02:01:07.686Z,16.54
2018-06-04T02:03:35.943Z,16.37
2018-06-04T02:06:04.228Z,16.31
2018-06-04T02:08:32.481Z,16.64
2018-06-04T02:11:01.114Z,16.57
2018-06-04T02:13:29.365Z,16.82
2018-06-04T02:15:57.614Z,16.57
2018-06-04T02:18:25.905Z,16.44
2018-06-04T02:20:54.154Z,16.40
2018-06-04T02:23:22.429Z,16.46
2018-06-04T02:25:50.749Z,16.65
2018-06-04T02:28:19.030Z,16.64
2018-06-04T02:30:47.336Z,16.56
2018-06-04T02:33:15.564Z,16.25
2018-06-04T02:35:43.816Z,16.36
2018-06-04T02:38:12.103Z,16.16
2018-06-04T02:40:40.345Z,16.23
2018-06-04T02:43:08.653Z,16.36
2018-06-04T02:45:36.902Z,16.22
2018-06-04T02:48:05.662Z,16.19
2018-06-04T02:50:34.018Z,16.27
2018-06-04T02:53:02.274Z,16.45
2018-06-04T02:55:30.537Z,16.56
2018-06-04T02:57:58.813Z,16.35
2018-06-04T03:00:27.106Z,16.47
2018-06-04T03:02:55.384Z,16.53
2018-06-04T03:05:23.696Z,16.46
2018-06-04T03:07:51.961Z,16.47
2018-06-04T03:10:20.271Z,16.63
2018-06-04T03:12:48.613Z,16.35
2018-06-04T03:15:16.910Z,16.27
2018-06-04T03:17:45.173Z,16.26
2018-06-04T03:20:13.574Z,16.36
2018-06-04T03:22:41.841Z,16.38
2018-06-04T03:25:10.123Z,16.27
2018-06-04T03:27:38.383Z,16.45
2018-06-04T03:30:06.659Z,16.24
2018-06-04T03:32:34.934Z,16.26
2018-06-04T03:35:03.195Z,16.28
2018-06-04T03:37:31.503Z,16.32
2018-06-04T03:39:59.785Z,16.34
2018-06-04T03:42:28.062Z,16.35
2018-06-04T03:44:56.396Z,16.48
2018-06-04T03:47:24.696Z,16.56
2018-06-04T03:49:52.958Z,16.47
2018-06-04T03:52:21.230Z,16.62
2018-06-04T03:54:49.482Z,16.37
2018-06-04T03:57:17.757Z,16.51
2018-06-04T03:59:46.013Z,16.48
2018-06-04T04:02:14.289Z,16.65
2018-06-04T04:04:42.534Z,16.52
2018-06-04T04:07:10.862Z,16.66
2018-06-04T04:09:39.141Z,16.68
2018-06-04T04:12:07.441Z,16.79
2018-06-04T04:14:35.845Z,16.79
2018-06-04T04:17:04.135Z,16.67
2018-06-04T04:19:32.393Z,16.50
2018-06-04T04:22:00.681Z,16.59
2018-06-04T04:24:28.949Z,16.56
2018-06-04T04:26:57.189Z,16.61
2018-06-04T04:29:25.472Z,16.78
2018-06-04T04:31:53.713Z,16.78
2018-06-04T04:34:22.019Z,16.82
2018-06-04T04:36:50.265Z,16.72
2018-06-04T04:39:18.545Z,17.03
2018-06-04T04:41:46.803Z,16.92
2018-06-04T04:44:15.089Z,16.80
2018-06-04T04:46:43.416Z,16.96
2018-06-04T04:49:11.625Z,16.94
2018-06-04T04:51:39.897Z,17.03
2018-06-04T04:54:08.261Z,16.77
2018-06-04T04:56:36.520Z,16.71
2018-06-04T04:59:05.217Z,16.74
2018-06-04T05:01:33.478Z,16.64
2018-06-04T05:04:01.763Z,16.88
2018-06-04T05:06:30.038Z,16.83
2018-06-04T05:08:58.342Z,16.94
2018-06-04T05:11:26.635Z,16.96
2018-06-04T05:13:54.954Z,16.94
2018-06-04T05:16:23.248Z,16.69
2018-06-04T05:18:51.609Z,16.80
2018-06-04T05:21:20.945Z,16.74
2018-06-04T05:23:49.205Z,16.74
2018-06-04T05:26:17.520Z,16.69
2018-06-04T05:28:45.820Z,16.61
2018-06-04T05:31:14.106Z,16.80
2018-06-04T05:33:42.357Z,16.71
2018-06-04T05:36:10.633Z,16.58
2018-06-04T05:38:38.918Z,16.64
2018-06-04T05:41:07.217Z,16.92
2018-06-04T05:43:35.471Z,16.94
2018-06-04T05:46:03.770Z,16.77
2018-06-04T05:48:32.017Z,16.82
2018-06-04T05:51:00.298Z,16.99
2018-06-04T05:53:28.541Z,16.96
2018-06-04T05:55:56.875Z,16.99
2018-06-04T05:58:25.105Z,16.89
2018-06-04T06:00:53.376Z,16.77
2018-06-04T06:03:21.840Z,16.82
2018-06-04T06:05:50.121Z,16.93
2018-06-04T06:08:18.405Z,16.90
2018-06-04T06:10:48.819Z,16.85
2018-06-04T06:13:17.137Z,17.02
2018-06-04T06:15:45.410Z,16.87
2018-06-04T06:18:13.702Z,16.96
2018-06-04T06:20:41.983Z,17.01
2018-06-04T06:23:10.263Z,17.28
2018-06-04T06:25:38.516Z,16.99
2018-06-04T06:28:06.818Z,17.20
2018-06-04T06:30:35.065Z,16.87
2018-06-04T06:33:03.342Z,16.79
2018-06-04T06:35:31.608Z,16.72
2018-06-04T06:37:59.896Z,16.98
2018-06-04T06:40:28.593Z,17.24
2018-06-04T06:42:56.902Z,17.25
2018-06-04T06:45:25.377Z,17.36
2018-06-04T06:47:54.093Z,17.26
2018-06-04T06:50:22.390Z,17.45
2018-06-04T06:52:50.701Z,17.26
2018-06-04T06:55:19.032Z,17.17
2018-06-04T06:57:47.305Z,17.20
2018-06-04T07:00:15.599Z,17.29
2018-06-04T07:02:43.882Z,17.37
2018-06-04T07:05:12.176Z,17.60
2018-06-04T07:07:40.494Z,17.34
2018-06-04T07:10:08.858Z,17.05
2018-06-04T07:12:37.254Z,17.09
2018-06-04T07:15:05.556Z,17.26
2018-06-04T07:17:33.814Z,17.24
2018-06-04T07:20:02.103Z,17.42
2018-06-04T07:22:30.358Z,17.40
2018-06-04T07:24:58.673Z,17.23
2018-06-04T07:27:26.926Z,17.36
2018-06-04T07:29:55.181Z,17.62
2018-06-04T07:32:23.485Z,17.53
2018-06-04T07:34:51.797Z,17.37
2018-06-04T07:37:21.130Z,17.33
2018-06-04T07:39:49.389Z,17.47
2018-06-04T07:42:17.670Z,17.40
2018-06-04T07:44:45.925Z,17.63
2018-06-04T07:47:14.198Z,17.28
2018-06-04T07:49:42.450Z,17.45
2018-06-04T07:52:10.778Z,17.48
2018-06-04T07:54:39.121Z,17.58
2018-06-04T07:57:07.423Z,17.22
2018-06-04T07:59:35.674Z,17.67
2018-06-04T08:02:03.966Z,17.64
2018-06-04T08:04:32.225Z,17.53
2018-06-04T08:07:00.521Z,17.78
2018-06-04T08:09:28.794Z,17.79
2018-06-04T08:11:57.090Z,17.56
2018-06-04T08:14:25.358Z,17.61
2018-06-04T08:16:53.678Z,17.08
2018-06-04T08:19:21.927Z,17.15
2018-06-04T08:21:50.277Z,17.23
2018-06-04T08:24:18.557Z,17.49
2018-06-04T08:26:46.802Z,16.91
2018-06-04T08:29:15.088Z,16.69
2018-06-04T08:31:43.372Z,16.94
2018-06-04T08:34:11.649Z,17.36
2018-06-04T08:36:40.961Z,17.71
2018-06-04T08:39:09.267Z,18.02
2018-06-04T08:41:38.522Z,17.77
2018-06-04T08:44:06.806Z,17.72
2018-06-04T08:46:35.160Z,17.97
2018-06-04T08:49:03.389Z,18.39
2018-06-04T08:51:32.661Z,18.21
2018-06-04T08:54:00.950Z,18.45
2018-06-04T08:56:29.206Z,17.87
2018-06-04T08:58:57.491Z,17.75
2018-06-04T09:01:25.764Z,18.21
2018-06-04T09:03:54.074Z,18.21
2018-06-04T09:06:22.336Z,18.00
2018-06-04T09:08:50.647Z,17.91
2018-06-04T09:11:18.948Z,17.42
2018-06-04T09:13:47.202Z,17.91
2018-06-04T09:16:15.540Z,18.08
2018-06-04T09:18:43.791Z,18.00
2018-06-04T09:21:12.082Z,17.90
2018-06-04T09:23:41.050Z,18.06
2018-06-04T09:26:10.382Z,17.97
2018-06-04T09:28:38.646Z,18.18
2018-06-04T09:31:06.927Z,18.54
2018-06-04T09:33:35.190Z,18.12
2018-06-04T09:36:03.481Z,18.05
2018-06-04T09:38:31.766Z,18.32
2018-06-04T09:41:02.122Z,18.19
2018-06-04T09:43:30.402Z,17.92
2018-06-04T09:45:58.753Z,18.07
2018-06-04T09:48:27.108Z,18.03
2018-06-04T09:50:56.430Z,18.31
2018-06-04T09:53:24.770Z,18.88
2018-06-04T09:55:53.438Z,18.44
2018-06-04T09:58:21.778Z,18.80
2018-06-04T10:00:50.199Z,18.48
2018-06-04T10:03:18.545Z,18.21
2018-06-04T10:05:46.974Z,18.51
2018-06-04T10:08:15.286Z,18.24
2018-06-04T10:10:43.727Z,18.39
2018-06-04T10:13:13.078Z,19.20
2018-06-04T10:15:41.417Z,19.68
2018-06-04T10:18:09.712Z,19.65
2018-06-04T10:20:38.065Z,19.76
2018-06-04T10:23:09.563Z,20.33
2018-06-04T10:25:37.829Z,20.55
2018-06-04T10:28:06.200Z,19.59
2018-06-04T10:30:34.630Z,20.81
2018-06-04T10:33:02.963Z,21.05
2018-06-04T10:35:32.260Z,21.08
2018-06-04T10:38:01.855Z,20.03
2018-06-04T10:40:30.200Z,21.19
2018-06-04T10:42:58.405Z,21.14
2018-06-04T10:45:28.769Z,20.83
2018-06-04T10:47:58.110Z,21.28
2018-06-04T10:50:26.481Z,21.23
2018-06-04T10:52:54.731Z,21.33
2018-06-04T10:55:23.097Z,21.61
2018-06-04T10:57:51.519Z,21.28
2018-06-04T11:00:19.826Z,20.82
2018-06-04T11:02:48.174Z,21.02
2018-06-04T11:05:16.505Z,21.81
2018-06-04T11:07:44.850Z,21.77
2018-06-04T11:10:13.252Z,22.04
2018-06-04T11:12:41.582Z,22.61
2018-06-04T11:15:09.865Z,23.34
2018-06-04T11:17:38.141Z,22.15
2018-06-04T11:20:06.462Z,22.09
2018-06-04T11:22:35.006Z,22.50
2018-06-04T11:25:03.322Z,22.93
2018-06-04T11:27:31.650Z,21.96
2018-06-04T11:29:59.913Z,22.73
2018-06-04T11:32:28.197Z,22.23
2018-06-04T11:34:56.442Z,22.02
2018-06-04T11:37:24.787Z,22.60
2018-06-04T11:39:53.057Z,22.15
2018-06-04T11:42:21.505Z,22.65
2018-06-04T11:44:49.790Z,22.04
2018-06-04T11:47:18.090Z,22.14
2018-06-04T11:49:46.542Z,22.42
2018-06-04T11:52:14.818Z,21.99
2018-06-04T11:54:43.104Z,22.80
2018-06-04T11:57:11.401Z,23.60
2018-06-04T11:59:39.749Z,22.85
2018-06-04T12:02:08.026Z,22.75
2018-06-04T12:04:36.281Z,23.04
2018-06-04T12:07:04.645Z,24.24
2018-06-04T12:09:32.956Z,23.80
2018-06-04T12:12:02.294Z,22.81
2018-06-04T12:14:30.584Z,23.30
2018-06-04T12:17:00.141Z,23.78
2018-06-04T12:19:28.456Z,23.31
2018-06-04T12:21:56.933Z,23.75
2018-06-04T12:24:25.181Z,24.13
2018-06-04T12:26:53.489Z,24.53
2018-06-04T12:29:21.845Z,23.22
2018-06-04T12:31:50.201Z,24.01
2018-06-04T12:34:18.487Z,24.23
2018-06-04T12:36:46.762Z,22.98
2018-06-04T12:39:15.073Z,24.05
2018-06-04T12:41:43.345Z,23.11
2018-06-04T12:44:11.761Z,24.01
2018-06-04T12:46:40.069Z,24.20
2018-06-04T12:49:08.369Z,24.01
2018-06-04T12:51:36.618Z,25.17
2018-06-04T12:54:04.945Z,24.57
2018-06-04T12:56:33.277Z,23.40
2018-06-04T12:59:01.566Z,22.54
2018-06-04T13:01:29.821Z,22.70
2018-06-04T13:03:58.144Z,22.76
2018-06-04T13:06:26.393Z,23.70
2018-06-04T13:08:54.700Z,24.19
2018-06-04T13:11:23.038Z,24.37
2018-06-04T13:13:52.466Z,23.45
2018-06-04T13:16:20.880Z,23.29
2018-06-04T13:18:49.206Z,23.98
2018-06-04T13:21:18.631Z,23.10
2018-06-04T13:23:46.885Z,24.30
2018-06-04T13:26:15.277Z,23.84
2018-06-04T13:28:43.544Z,24.98
2018-06-04T13:31:11.853Z,25.44
2018-06-04T13:33:40.250Z,25.94
2018-06-04T13:36:08.505Z,24.92
2018-06-04T13:38:36.785Z,25.51
2018-06-04T13:41:05.150Z,25.37
2018-06-04T13:43:33.421Z,26.68
2018-06-04T13:46:01.722Z,26.27
2018-06-04T13:48:29.996Z,26.14
2018-06-04T13:50:58.321Z,26.91
2018-06-04T13:53:26.652Z,27.42
2018-06-04T13:55:55.070Z,26.43
2018-06-04T13:58:23.364Z,27.34
2018-06-04T14:00:51.622Z,28.58
2018-06-04T14:03:20.017Z,26.09
2018-06-04T14:05:48.295Z,26.56
2018-06-04T14:08:16.596Z,26.65
2018-06-04T14:10:44.901Z,27.20
2018-06-04T14:13:13.197Z,29.64
2018-06-04T14:15:43.524Z,28.78
2018-06-04T14:18:11.837Z,30.20
2018-06-04T14:20:40.109Z,29.69
2018-06-04T14:23:08.402Z,29.32
2018-06-04T14:25:36.657Z,30.30
2018-06-04T14:28:05.038Z,33.03
2018-06-04T14:30:33.337Z,30.74
2018-06-04T14:33:03.643Z,28.06
2018-06-04T14:35:32.958Z,29.18
2018-06-04T14:38:01.253Z,27.55
2018-06-04T14:40:29.578Z,28.83
2018-06-04T14:42:58.992Z,26.94
2018-06-04T14:45:28.101Z,32.24
2018-06-04T14:47:56.410Z,32.70
2018-06-04T14:50:24.669Z,31.09
2018-06-04T14:52:54.178Z,34.34
2018-06-04T14:55:22.450Z,33.83
2018-06-04T14:57:50.709Z,31.70
2018-06-04T15:00:18.998Z,32.21
2018-06-04T15:02:47.244Z,33.36
2018-06-04T15:05:15.528Z,36.57
2018-06-04T15:07:43.797Z,33.20
2018-06-04T15:10:12.107Z,30.57
2018-06-04T15:12:40.367Z,31.56
2018-06-04T15:15:08.775Z,30.55
2018-06-04T15:17:37.035Z,26.16
2018-06-04T15:20:05.349Z,29.71
2018-06-04T15:22:34.675Z,26.09
2018-06-04T15:25:02.961Z,23.75
2018-06-04T15:27:32.247Z,23.50
2018-06-04T15:30:01.580Z,24.84
2018-06-04T15:32:29.828Z,23.73
2018-06-04T15:34:58.099Z,23.05
2018-06-04T15:37:26.363Z,23.03
2018-06-04T15:39:55.693Z,22.94
2018-06-04T15:42:25.992Z,23.88
2018-06-04T15:44:54.283Z,23.82
2018-06-04T15:47:22.577Z,24.42
2018-06-04T15:49:51.001Z,22.41
2018-06-04T15:52:20.371Z,24.16
2018-06-04T15:54:48.741Z,25.43
2018-06-04T15:57:17.034Z,23.65
2018-06-04T15:59:45.292Z,26.64
2018-06-04T16:02:13.673Z,28.89
2018-06-04T16:04:42.026Z,30.24
2018-06-04T16:07:10.325Z,27.46
2018-06-04T16:09:40.658Z,26.65
2018-06-04T16:12:10.118Z,25.54
2018-06-04T16:14:39.453Z,23.01
2018-06-04T16:17:07.999Z,23.60
2018-06-04T16:19:36.309Z,24.85
2018-06-04T16:22:04.771Z,25.64
2018-06-04T16:24:33.085Z,27.96
2018-06-04T16:27:01.441Z,29.44
2018-06-04T16:29:30.757Z,29.28
2018-06-04T16:31:59.067Z,24.05
2018-06-04T16:34:27.342Z,24.30
2018-06-04T16:36:55.672Z,23.79
2018-06-04T16:39:24.119Z,24.59
2018-06-04T16:41:52.809Z,27.71
2018-06-04T16:44:24.419Z,30.44
2018-06-04T16:46:52.725Z,27.41
2018-06-04T16:49:21.047Z,23.29
2018-06-04T16:51:49.345Z,22.10
2018-06-04T16:54:17.683Z,21.79
2018-06-04T16:56:45.962Z,24.23
2018-06-04T16:59:16.385Z,27.09
2018-06-04T17:01:44.581Z,24.07
2018-06-04T17:04:12.977Z,25.87
2018-06-04T17:06:41.278Z,27.66
2018-06-04T17:09:10.744Z,25.64
2018-06-04T17:11:39.068Z,23.26
2018-06-04T17:14:09.477Z,21.76
2018-06-04T17:16:41.290Z,23.57
2018-06-04T17:19:09.650Z,22.22
2018-06-04T17:21:37.911Z,21.88
2018-06-04T17:24:07.285Z,20.98
2018-06-04T17:26:35.557Z,21.80
2018-06-04T17:29:04.974Z,21.86
2018-06-04T17:31:33.275Z,21.53
2018-06-04T17:34:01.597Z,20.72
2018-06-04T17:36:29.927Z,23.73
2018-06-04T17:38:58.214Z,22.52
2018-06-04T17:41:26.549Z,21.18
2018-06-04T17:43:55.965Z,20.76
2018-06-04T17:46:24.338Z,20.65
2018-06-04T17:48:52.673Z,20.47
2018-06-04T17:51:21.373Z,20.62
2018-06-04T17:53:51.057Z,20.55
2018-06-04T17:56:19.490Z,20.39
2018-06-04T17:58:47.842Z,20.34
2018-06-04T18:01:16.157Z,20.10
2018-06-04T18:03:44.470Z,20.32
2018-06-04T18:06:12.939Z,20.62
2018-06-04T18:08:41.232Z,20.70
2018-06-04T18:11:09.645Z,20.67
2018-06-04T18:13:37.973Z,20.27
2018-06-04T18:16:07.350Z,19.74
2018-06-04T18:18:35.696Z,19.66
2018-06-04T18:21:04.103Z,19.61
2018-06-04T18:23:32.401Z,19.41
2018-06-04T18:26:00.738Z,19.55
2018-06-04T18:28:29.461Z,19.71
2018-06-04T18:30:57.771Z,19.57
2018-06-04T18:33:26.161Z,19.56
2018-06-04T18:35:55.585Z,19.38
2018-06-04T18:38:23.886Z,19.24
2018-06-04T18:40:54.189Z,19.40
2018-06-04T18:43:22.505Z,19.56
2018-06-04T18:45:50.798Z,19.73
2018-06-04T18:48:19.113Z,19.54
2018-06-04T18:50:48.566Z,19.58
2018-06-04T18:53:16.975Z,19.62
2018-06-04T18:55:46.350Z,19.21
2018-06-04T18:58:14.705Z,19.16
2018-06-04T19:00:43.013Z,18.83
2018-06-04T19:03:11.409Z,18.59
2018-06-04T19:05:39.710Z,18.56
2018-06-04T19:08:08.124Z,18.45
2018-06-04T19:10:37.492Z,18.26
2018-06-04T19:13:05.888Z,18.21
2018-06-04T19:15:34.221Z,18.08
2018-06-04T19:18:02.634Z,18.01
2018-06-04T19:20:30.981Z,17.85
2018-06-04T19:23:00.463Z,17.97
2018-06-04T19:25:28.801Z,17.93
2018-06-04T19:27:57.121Z,17.87
2018-06-04T19:30:27.521Z,17.86
2018-06-04T19:32:55.986Z,17.85
2018-06-04T19:35:24.325Z,17.66
2018-06-04T19:37:54.703Z,17.65
2018-06-04T19:40:23.037Z,17.59
2018-06-04T19:42:51.317Z,17.50
2018-06-04T19:45:19.970Z,17.58
2018-06-04T19:47:49.437Z,17.62
2018-06-04T19:50:18.858Z,17.57
2018-06-04T19:52:47.177Z,17.40
2018-06-04T19:55:15.593Z,17.46
2018-06-04T19:57:44.962Z,17.30
2018-06-04T20:00:13.374Z,17.22
2018-06-04T20:02:41.697Z,17.21
2018-06-04T20:05:10.085Z,17.18
2018-06-04T20:07:39.532Z,17.09
2018-06-04T20:10:07.940Z,17.06
2018-06-04T20:12:36.292Z,16.89
2018-06-04T20:15:04.741Z,16.89
2018-06-04T20:17:33.134Z,16.76
2018-06-04T20:20:01.500Z,16.76
2018-06-04T20:22:30.028Z,16.73
2018-06-04T20:24:58.312Z,16.65
2018-06-04T20:27:27.668Z,16.66
2018-06-04T20:29:56.019Z,16.63
2018-06-04T20:32:24.500Z,16.67
2018-06-04T20:34:52.854Z,16.66
2018-06-04T20:37:22.325Z,16.56
2018-06-04T20:39:50.611Z,16.59
2018-06-04T20:42:19.949Z,16.51
2018-06-04T20:44:48.365Z,16.50
2018-06-04T20:47:17.718Z,16.60
2018-06-04T20:49:46.105Z,16.55
2018-06-04T20:52:15.425Z,16.60
2018-06-04T20:54:43.785Z,16.43
2018-06-04T20:57:14.099Z,16.47
2018-06-04T20:59:42.425Z,16.41
2018-06-04T21:02:11.765Z,16.31
2018-06-04T21:04:40.205Z,16.24
2018-06-04T21:07:08.545Z,16.21
2018-06-04T21:09:36.869Z,16.18
2018-06-04T21:12:05.195Z,16.04
2018-06-04T21:14:33.598Z,15.93
2018-06-04T21:17:02.027Z,15.90
2018-06-04T21:19:30.398Z,15.94
2018-06-04T21:21:58.667Z,15.89
2018-06-04T21:24:27.104Z,15.86
2018-06-04T21:26:55.483Z,15.72
2018-06-04T21:29:33.434Z,15.69
2018-06-04T21:32:02.723Z,15.66
2018-06-04T21:34:32.017Z,15.65
2018-06-04T21:37:00.310Z,15.62
2018-06-04T21:39:34.348Z,15.59
2018-06-04T21:42:02.632Z,15.51
2018-06-04T21:44:40.684Z,15.42
2018-06-04T21:47:13.294Z,15.38
2018-06-04T21:49:41.654Z,15.25
2018-06-04T21:52:15.534Z,15.03
2018-06-04T21:54:43.918Z,15.05
2018-06-04T21:57:13.239Z,14.99
2018-06-04T21:59:45.094Z,15.10
2018-06-04T22:02:13.391Z,15.02
2018-06-04T22:04:41.658Z,14.97
2018-06-04T22:07:09.969Z,14.91
2018-06-04T22:09:38.257Z,14.88
2018-06-04T22:12:06.601Z,14.84
2018-06-04T22:14:34.961Z,14.86
2018-06-04T22:17:03.322Z,14.86
2018-06-04T22:19:31.629Z,14.78
2018-06-04T22:22:00.030Z,14.85
2018-06-04T22:24:28.369Z,14.76
2018-06-04T22:26:56.674Z,14.71
2018-06-04T22:29:25.013Z,14.64
2018-06-04T22:31:53.335Z,14.50
2018-06-04T22:34:22.857Z,14.64
2018-06-04T22:36:51.233Z,14.55
2018-06-04T22:39:19.514Z,14.48
2018-06-04T22:41:47.872Z,14.48
2018-06-04T22:44:16.265Z,14.48
2018-06-04T22:46:44.737Z,14.50
2018-06-04T22:49:13.044Z,14.56
2018-06-04T22:51:41.308Z,14.59
2018-06-04T22:54:09.650Z,14.47
2018-06-04T22:56:38.123Z,14.43
2018-06-04T22:59:06.481Z,14.38
2018-06-04T23:01:34.760Z,14.39
2018-06-04T23:04:03.066Z,14.43
2018-06-04T23:06:32.381Z,14.36
2018-06-04T23:09:00.689Z,14.37
2018-06-04T23:11:29.017Z,14.36
2018-06-04T23:13:57.330Z,14.36
2018-06-04T23:16:25.673Z,14.30
2018-06-04T23:18:53.945Z,14.18
2018-06-04T23:21:22.265Z,14.16
2018-06-04T23:23:50.537Z,14.23
2018-06-04T23:26:18.897Z,14.23
2018-06-04T23:28:47.210Z,14.25
2018-06-04T23:31:15.537Z,14.17
2018-06-04T23:33:43.834Z,14.31
2018-06-04T23:36:12.125Z,14.25
2018-06-04T23:38:41.501Z,14.14
2018-06-04T23:41:10.815Z,14.32
2018-06-04T23:43:39.090Z,14.29
2018-06-04T23:46:07.410Z,14.20
2018-06-04T23:48:35.686Z,14.23
2018-06-04T23:51:03.962Z,14.40
2018-06-04T23:53:32.327Z,14.24
2018-06-04T23:56:00.837Z,14.11
2018-06-04T23:58:29.160Z,14.15
